createdAt,value
2023-05-06T00:00:44.917Z,100963.72
2023-05-06T00:03:13.606Z,100958.41
2023-05-06T00:05:43.514Z,100965.88
2023-05-06T00:08:12.350Z,100957.16
2023-05-06T00:10:41.173Z,100951.16
2023-05-06T00:13:10.345Z,100958.38
2023-05-06T00:15:39.554Z,100953.47
2023-05-06T00:18:09.970Z,100946.25
2023-05-06T00:20:39.436Z,100949.53
2023-05-06T00:23:08.294Z,100954.59
2023-05-06T00:25:36.765Z,100953.88
2023-05-06T00:28:05.949Z,100952.44
2023-05-06T00:30:35.031Z,100951.38
2023-05-06T00:33:04.213Z,100957.97
2023-05-06T00:35:34.572Z,100958.94
2023-05-06T00:38:09.751Z,100953.19
2023-05-06T00:40:38.423Z,100960.28
2023-05-06T00:43:07.478Z,100962.56
2023-05-06T00:45:36.894Z,100962.91
2023-05-06T00:48:07.093Z,100961.97
2023-05-06T00:50:37.865Z,100955.34
2023-05-06T00:53:07.217Z,100958.59
2023-05-06T00:55:35.714Z,100959.66
2023-05-06T00:58:05.145Z,100960.75
2023-05-06T01:00:34.885Z,100958.38
2023-05-06T01:03:04.074Z,100952.84
2023-05-06T01:05:37.378Z,100954.66
2023-05-06T01:08:15.706Z,100956.78
2023-05-06T01:10:47.919Z,100967.59
2023-05-06T01:13:24.329Z,100976.72
2023-05-06T01:15:56.067Z,100974.31
2023-05-06T01:18:27.083Z,100971.91
2023-05-06T01:20:56.691Z,100971.19
2023-05-06T01:23:26.986Z,100972.16
2023-05-06T01:25:55.473Z,100975.84
2023-05-06T01:28:24.334Z,100976.94
2023-05-06T01:30:59.432Z,100981.38
2023-05-06T01:33:34.279Z,100987.50
2023-05-06T01:36:11.484Z,100987.00
2023-05-06T01:38:46.983Z,100981.59
2023-05-06T01:41:17.971Z,100986.41
2023-05-06T01:43:49.260Z,100982.94
2023-05-06T01:46:21.028Z,100987.47
2023-05-06T01:48:51.795Z,100979.47
2023-05-06T01:51:22.177Z,100980.41
2023-05-06T01:53:52.308Z,100986.56
2023-05-06T01:56:21.223Z,100981.59
2023-05-06T01:58:49.728Z,100983.41
2023-05-06T02:01:18.565Z,100980.53
2023-05-06T02:03:47.789Z,100981.00
2023-05-06T02:06:16.960Z,100975.13
2023-05-06T02:08:46.426Z,100974.16
2023-05-06T02:11:21.769Z,100970.22
2023-05-06T02:13:52.948Z,100971.63
2023-05-06T02:16:22.145Z,100975.88
2023-05-06T02:18:51.685Z,100966.59
2023-05-06T02:21:20.561Z,100968.75
2023-05-06T02:23:50.119Z,100975.38
2023-05-06T02:26:19.714Z,100970.44
2023-05-06T02:28:49.620Z,100971.91
2023-05-06T02:31:18.639Z,100972.00
2023-05-06T02:33:47.546Z,100967.53
2023-05-06T02:36:16.438Z,100967.44
2023-05-06T02:38:45.318Z,100958.81
2023-05-06T02:41:14.218Z,100957.47
2023-05-06T02:43:42.810Z,100940.88
2023-05-06T02:46:13.718Z,100939.00
2023-05-06T02:48:43.243Z,100941.28
2023-05-06T02:51:12.395Z,100946.00
2023-05-06T02:53:41.221Z,100940.66
2023-05-06T02:56:10.162Z,100942.34
2023-05-06T02:58:38.677Z,100939.75
2023-05-06T03:01:08.560Z,100947.47
2023-05-06T03:03:38.843Z,100944.13
2023-05-06T03:06:07.788Z,100960.56
2023-05-06T03:08:36.983Z,100953.91
2023-05-06T03:11:08.368Z,100948.81
2023-05-06T03:13:37.662Z,100947.72
2023-05-06T03:16:07.380Z,100959.28
2023-05-06T03:18:38.348Z,100957.72
2023-05-06T03:21:07.087Z,100973.94
2023-05-06T03:23:38.311Z,100976.31
2023-05-06T03:26:07.548Z,100972.00
2023-05-06T03:28:36.543Z,100974.91
2023-05-06T03:31:06.864Z,100971.44
2023-05-06T03:33:38.214Z,100964.97
2023-05-06T03:36:09.665Z,100966.00
2023-05-06T03:38:39.561Z,100973.38
2023-05-06T03:41:10.462Z,100978.25
2023-05-06T03:43:38.878Z,100981.88
2023-05-06T03:46:08.277Z,100985.97
2023-05-06T03:48:39.751Z,100978.88
2023-05-06T03:51:12.880Z,100985.50
2023-05-06T03:53:42.831Z,100985.13
2023-05-06T03:56:11.844Z,100980.81
2023-05-06T03:58:40.542Z,100980.19
2023-05-06T04:01:12.500Z,100980.56
2023-05-06T04:03:42.908Z,100985.13
2023-05-06T04:06:12.204Z,100981.53
2023-05-06T04:08:41.039Z,100976.25
2023-05-06T04:11:10.068Z,100974.31
2023-05-06T04:13:39.391Z,100972.03
2023-05-06T04:16:14.741Z,100968.56
2023-05-06T04:18:47.892Z,100958.97
2023-05-06T04:21:18.516Z,100961.72
2023-05-06T04:23:54.796Z,100965.44
2023-05-06T04:26:29.813Z,100966.88
2023-05-06T04:28:58.720Z,100968.06
2023-05-06T04:31:29.816Z,100965.72
2023-05-06T04:34:05.590Z,100965.91
2023-05-06T04:36:35.227Z,100955.38
2023-05-06T04:39:27.288Z,100960.63
2023-05-06T04:41:56.529Z,100974.31
2023-05-06T04:44:34.112Z,100969.50
2023-05-06T04:47:04.701Z,100965.66
2023-05-06T04:49:35.102Z,100966.16
2023-05-06T04:52:05.875Z,100967.09
2023-05-06T04:54:35.614Z,100962.53
2023-05-06T04:57:04.672Z,100955.91
2023-05-06T04:59:35.732Z,100962.28
2023-05-06T05:02:05.234Z,100959.16
2023-05-06T05:04:35.248Z,100952.28
2023-05-06T05:07:03.877Z,100960.66
2023-05-06T05:09:34.095Z,100954.50
2023-05-06T05:12:04.009Z,100953.63
2023-05-06T05:14:37.087Z,100953.22
2023-05-06T05:17:06.788Z,100958.19
2023-05-06T05:19:37.311Z,100959.31
2023-05-06T05:22:07.564Z,100950.03
2023-05-06T05:24:36.436Z,100944.38
2023-05-06T05:27:05.548Z,100952.44
2023-05-06T05:29:34.650Z,100949.69
2023-05-06T05:32:05.483Z,100954.22
2023-05-06T05:34:34.251Z,100948.06
2023-05-06T05:37:05.022Z,100947.41
2023-05-06T05:39:35.890Z,100939.44
2023-05-06T05:42:05.007Z,100945.84
2023-05-06T05:44:35.999Z,100954.75
2023-05-06T05:47:06.693Z,100944.81
2023-05-06T05:49:36.600Z,100943.66
2023-05-06T05:52:07.486Z,100948.75
2023-05-06T05:54:36.424Z,100945.50
2023-05-06T05:57:06.131Z,100938.50
2023-05-06T05:59:35.140Z,100939.75
2023-05-06T06:02:06.612Z,100940.50
2023-05-06T06:04:35.347Z,100934.63
2023-05-06T06:07:09.567Z,100929.50
2023-05-06T06:09:42.186Z,100933.56
2023-05-06T06:12:11.263Z,100918.78
2023-05-06T06:14:44.959Z,100929.53
2023-05-06T06:17:14.183Z,100924.19
2023-05-06T06:19:43.273Z,100929.88
2023-05-06T06:22:13.594Z,100931.50
2023-05-06T06:24:42.760Z,100933.59
2023-05-06T06:27:13.028Z,100935.75
2023-05-06T06:29:42.431Z,100941.94
2023-05-06T06:32:11.438Z,100933.81
2023-05-06T06:34:41.383Z,100932.84
2023-05-06T06:37:11.445Z,100930.19
2023-05-06T06:39:41.786Z,100917.50
2023-05-06T06:42:10.508Z,100929.88
2023-05-06T06:44:50.125Z,100927.31
2023-05-06T06:47:18.996Z,100934.22
2023-05-06T06:49:47.971Z,100932.63
2023-05-06T06:52:16.988Z,100927.88
2023-05-06T06:54:47.294Z,100929.13
2023-05-06T06:57:16.411Z,100925.22
2023-05-06T06:59:45.289Z,100921.44
2023-05-06T07:02:14.242Z,100927.00
2023-05-06T07:04:42.697Z,100913.91
2023-05-06T07:07:11.693Z,100914.44
2023-05-06T07:09:40.928Z,100902.78
2023-05-06T07:12:11.286Z,100905.47
2023-05-06T07:14:41.555Z,100901.53
2023-05-06T07:17:10.475Z,100903.66
2023-05-06T07:19:38.956Z,100903.59
2023-05-06T07:22:08.016Z,100901.66
2023-05-06T07:24:36.869Z,100895.50
2023-05-06T07:27:05.946Z,100901.63
2023-05-06T07:29:36.874Z,100892.78
2023-05-06T07:32:06.409Z,100872.19
2023-05-06T07:34:36.158Z,100877.06
2023-05-06T07:37:05.107Z,100888.44
2023-05-06T07:39:33.983Z,100874.84
2023-05-06T07:42:03.088Z,100891.66
2023-05-06T07:44:31.939Z,100890.50
2023-05-06T07:47:02.414Z,100879.22
2023-05-06T07:49:33.326Z,100886.53
2023-05-06T07:52:03.559Z,100873.34
2023-05-06T07:54:33.873Z,100881.16
2023-05-06T07:57:02.900Z,100881.53
2023-05-06T07:59:31.814Z,100879.78
2023-05-06T08:02:02.150Z,100875.59
2023-05-06T08:04:30.787Z,100869.22
2023-05-06T08:06:59.797Z,100878.66
2023-05-06T08:09:28.706Z,100880.50
2023-05-06T08:11:58.463Z,100885.00
2023-05-06T08:14:27.318Z,100881.13
2023-05-06T08:16:56.205Z,100893.16
2023-05-06T08:19:26.727Z,100879.78
2023-05-06T08:21:55.813Z,100896.28
2023-05-06T08:24:24.694Z,100896.72
2023-05-06T08:26:53.578Z,100896.59
2023-05-06T08:29:23.615Z,100909.91
2023-05-06T08:31:52.223Z,100898.09
2023-05-06T08:34:21.393Z,100890.28
2023-05-06T08:36:52.129Z,100890.50
2023-05-06T08:39:22.125Z,100881.91
2023-05-06T08:41:52.021Z,100896.66
2023-05-06T08:44:22.460Z,100885.47
2023-05-06T08:46:51.277Z,100887.69
2023-05-06T08:49:20.267Z,100900.16
2023-05-06T08:51:52.841Z,100890.44
2023-05-06T08:54:21.938Z,100884.56
2023-05-06T08:56:54.936Z,100878.25
2023-05-06T08:59:26.808Z,100891.25
2023-05-06T09:01:55.503Z,100886.44
2023-05-06T09:04:24.460Z,100889.28
2023-05-06T09:06:54.845Z,100889.47
2023-05-06T09:09:23.471Z,100888.28
2023-05-06T09:11:55.246Z,100886.19
2023-05-06T09:14:24.356Z,100884.41
2023-05-06T09:16:54.343Z,100870.44
2023-05-06T09:19:24.129Z,100885.09
2023-05-06T09:21:55.128Z,100882.50
2023-05-06T09:24:24.023Z,100880.03
2023-05-06T09:26:55.340Z,100878.75
2023-05-06T09:29:24.304Z,100876.38
2023-05-06T09:31:56.543Z,100882.38
2023-05-06T09:34:25.495Z,100891.41
2023-05-06T09:36:57.730Z,100885.91
2023-05-06T09:39:27.737Z,100887.34
2023-05-06T09:41:56.681Z,100889.38
2023-05-06T09:44:26.288Z,100881.69
2023-05-06T09:46:55.099Z,100875.16
2023-05-06T09:49:24.628Z,100874.63
2023-05-06T09:51:55.410Z,100872.34
2023-05-06T09:54:25.382Z,100868.41
2023-05-06T09:56:54.532Z,100861.25
2023-05-06T09:59:24.547Z,100866.16
2023-05-06T10:01:53.493Z,100848.78
2023-05-06T10:04:25.602Z,100858.50
2023-05-06T10:06:57.866Z,100855.22
2023-05-06T10:09:27.109Z,100858.66
2023-05-06T10:11:56.064Z,100849.31
2023-05-06T10:14:25.466Z,100850.22
2023-05-06T10:16:54.344Z,100852.34
2023-05-06T10:19:26.823Z,100855.28
2023-05-06T10:22:05.731Z,100854.13
2023-05-06T10:24:39.775Z,100853.75
2023-05-06T10:27:08.802Z,100852.09
2023-05-06T10:29:39.134Z,100846.28
2023-05-06T10:32:07.966Z,100840.19
2023-05-06T10:34:39.468Z,100838.63
2023-05-06T10:37:11.592Z,100834.91
2023-05-06T10:39:42.370Z,100836.00
2023-05-06T10:42:12.151Z,100822.75
2023-05-06T10:45:00.841Z,100826.19
2023-05-06T10:47:29.890Z,100822.69
2023-05-06T10:50:22.094Z,100817.00
2023-05-06T10:52:55.582Z,100808.00
2023-05-06T10:55:29.102Z,100816.47
2023-05-06T10:58:00.740Z,100806.34
2023-05-06T11:00:32.817Z,100797.47
2023-05-06T11:03:07.378Z,100793.34
2023-05-06T11:05:48.061Z,100795.72
2023-05-06T11:08:22.684Z,100792.53
2023-05-06T11:10:51.317Z,100791.56
2023-05-06T11:13:22.798Z,100797.25
2023-05-06T11:15:52.482Z,100798.16
2023-05-06T11:18:45.597Z,100793.16
2023-05-06T11:21:42.111Z,100790.50
2023-05-06T11:24:14.240Z,100798.84
2023-05-06T11:26:44.332Z,100787.63
2023-05-06T11:29:13.317Z,100808.56
2023-05-06T11:31:43.439Z,100797.31
2023-05-06T11:34:14.971Z,100806.16
2023-05-06T11:36:48.504Z,100802.81
2023-05-06T11:39:19.085Z,100809.53
2023-05-06T11:41:48.271Z,100802.03
2023-05-06T11:44:27.847Z,100809.19
2023-05-06T11:47:04.559Z,100809.63
2023-05-06T11:49:37.265Z,100809.72
2023-05-06T11:52:06.567Z,100813.66
2023-05-06T11:54:39.475Z,100814.53
2023-05-06T11:57:08.703Z,100820.16
2023-05-06T11:59:39.063Z,100813.19
2023-05-06T12:02:08.279Z,100818.22
2023-05-06T12:04:41.423Z,100821.13
2023-05-06T12:07:11.545Z,100824.97
2023-05-06T12:09:44.037Z,100825.75
2023-05-06T12:12:14.119Z,100819.81
2023-05-06T12:14:43.154Z,100826.50
2023-05-06T12:17:12.382Z,100819.53
2023-05-06T12:19:40.928Z,100816.59
2023-05-06T12:22:19.139Z,100815.09
2023-05-06T12:24:50.162Z,100821.41
2023-05-06T12:27:32.667Z,100822.09
2023-05-06T12:30:04.262Z,100825.13
2023-05-06T12:32:34.450Z,100825.25
2023-05-06T12:35:07.591Z,100828.06
2023-05-06T12:37:36.343Z,100820.97
2023-05-06T12:40:08.488Z,100829.59
2023-05-06T12:42:37.841Z,100833.25
2023-05-06T12:45:16.446Z,100826.97
2023-05-06T12:47:54.816Z,100820.41
2023-05-06T12:50:34.383Z,100821.81
2023-05-06T12:53:03.518Z,100816.53
2023-05-06T12:55:34.204Z,100819.31
2023-05-06T12:58:03.192Z,100812.34
2023-05-06T13:00:32.185Z,100812.22
2023-05-06T13:03:01.534Z,100807.50
2023-05-06T13:05:30.598Z,100809.31
2023-05-06T13:07:59.716Z,100815.34
2023-05-06T13:10:28.297Z,100807.38
2023-05-06T13:12:58.729Z,100806.69
2023-05-06T13:15:28.015Z,100810.09
2023-05-06T13:17:57.384Z,100800.91
2023-05-06T13:20:26.494Z,100804.38
2023-05-06T13:22:55.444Z,100800.47
2023-05-06T13:25:24.579Z,100786.94
2023-05-06T13:27:54.856Z,100793.91
2023-05-06T13:30:25.437Z,100784.56
2023-05-06T13:32:54.529Z,100780.78
2023-05-06T13:35:23.559Z,100768.47
2023-05-06T13:37:52.080Z,100767.66
2023-05-06T13:40:21.281Z,100759.16
2023-05-06T13:42:50.215Z,100749.53
2023-05-06T13:45:19.127Z,100733.88
2023-05-06T13:47:49.717Z,100736.22
2023-05-06T13:50:19.009Z,100736.75
2023-05-06T13:52:47.471Z,100736.19
2023-05-06T13:55:19.206Z,100735.31
2023-05-06T13:57:48.465Z,100728.88
2023-05-06T14:00:18.277Z,100728.19
2023-05-06T14:02:47.285Z,100727.34
2023-05-06T14:05:17.987Z,100724.84
2023-05-06T14:07:46.372Z,100722.63
2023-05-06T14:10:15.717Z,100723.94
2023-05-06T14:12:44.767Z,100709.66
2023-05-06T14:15:14.943Z,100713.28
2023-05-06T14:17:46.693Z,100720.22
2023-05-06T14:20:15.852Z,100720.38
2023-05-06T14:22:45.774Z,100715.63
2023-05-06T14:25:15.124Z,100708.19
2023-05-06T14:27:45.546Z,100708.31
2023-05-06T14:30:16.400Z,100715.13
2023-05-06T14:32:45.531Z,100715.03
2023-05-06T14:35:14.676Z,100709.44
2023-05-06T14:37:46.403Z,100713.38
2023-05-06T14:40:16.985Z,100703.84
2023-05-06T14:42:46.566Z,100700.41
2023-05-06T14:45:15.959Z,100710.13
2023-05-06T14:47:45.216Z,100711.19
2023-05-06T14:50:14.177Z,100711.34
2023-05-06T14:52:43.168Z,100710.63
2023-05-06T14:55:14.058Z,100718.50
2023-05-06T14:57:43.103Z,100723.47
2023-05-06T15:00:14.855Z,100723.66
2023-05-06T15:02:44.184Z,100722.16
2023-05-06T15:05:13.820Z,100723.53
2023-05-06T15:07:42.903Z,100728.41
2023-05-06T15:10:13.834Z,100724.09
2023-05-06T15:12:42.781Z,100720.78
2023-05-06T15:15:11.886Z,100721.66
2023-05-06T15:17:41.861Z,100725.78
2023-05-06T15:20:11.820Z,100731.28
2023-05-06T15:22:40.468Z,100740.47
2023-05-06T15:25:16.713Z,100742.31
2023-05-06T15:27:53.127Z,100753.56
2023-05-06T15:30:21.940Z,100755.63
2023-05-06T15:32:50.956Z,100748.22
2023-05-06T15:35:19.970Z,100749.44
2023-05-06T15:37:48.910Z,100746.09
2023-05-06T15:40:17.998Z,100751.63
2023-05-06T15:42:46.985Z,100758.16
2023-05-06T15:45:17.529Z,100751.22
2023-05-06T15:47:46.340Z,100756.28
2023-05-06T15:50:25.255Z,100757.97
2023-05-06T15:53:01.268Z,100754.94
2023-05-06T15:55:35.284Z,100752.94
2023-05-06T15:58:12.916Z,100752.34
2023-05-06T16:00:43.370Z,100760.47
2023-05-06T16:03:12.780Z,100761.53
2023-05-06T16:05:42.197Z,100763.72
2023-05-06T16:08:11.495Z,100766.09
2023-05-06T16:10:40.239Z,100771.81
2023-05-06T16:13:09.303Z,100783.44
2023-05-06T16:15:38.533Z,100780.44
2023-05-06T16:18:09.084Z,100785.94
2023-05-06T16:20:38.341Z,100784.13
2023-05-06T16:23:07.373Z,100782.81
2023-05-06T16:25:38.267Z,100788.34
2023-05-06T16:28:07.481Z,100800.09
2023-05-06T16:30:36.509Z,100796.19
2023-05-06T16:33:06.262Z,100804.31
2023-05-06T16:35:36.737Z,100808.03
2023-05-06T16:38:05.369Z,100808.25
2023-05-06T16:40:33.996Z,100810.69
2023-05-06T16:43:03.218Z,100810.94
2023-05-06T16:45:32.169Z,100804.94
2023-05-06T16:48:01.262Z,100801.00
2023-05-06T16:50:30.264Z,100807.56
2023-05-06T16:53:00.830Z,100806.00
2023-05-06T16:55:29.629Z,100799.66
2023-05-06T16:58:00.849Z,100803.41
2023-05-06T17:00:30.542Z,100802.03
2023-05-06T17:02:59.598Z,100808.56
2023-05-06T17:05:31.058Z,100804.03
2023-05-06T17:08:01.147Z,100810.03
2023-05-06T17:10:29.821Z,100808.09
2023-05-06T17:12:58.903Z,100800.66
2023-05-06T17:15:28.855Z,100799.72
2023-05-06T17:17:57.934Z,100796.56
2023-05-06T17:20:27.339Z,100792.03
2023-05-06T17:22:56.501Z,100800.19
2023-05-06T17:25:26.824Z,100800.66
2023-05-06T17:27:55.545Z,100794.66
2023-05-06T17:30:24.621Z,100797.09
2023-05-06T17:32:53.603Z,100793.47
2023-05-06T17:35:22.703Z,100796.84
2023-05-06T17:37:51.530Z,100800.84
2023-05-06T17:40:20.684Z,100796.28
2023-05-06T17:42:51.095Z,100802.03
2023-05-06T17:45:19.932Z,100798.41
2023-05-06T17:47:48.837Z,100802.78
2023-05-06T17:50:18.167Z,100803.34
2023-05-06T17:52:50.840Z,100813.66
2023-05-06T17:55:21.868Z,100819.91
2023-05-06T17:57:53.698Z,100819.19
2023-05-06T18:00:22.965Z,100827.47
2023-05-06T18:02:52.304Z,100817.03
2023-05-06T18:05:21.859Z,100823.28
2023-05-06T18:07:50.399Z,100825.09
2023-05-06T18:10:20.174Z,100829.06
2023-05-06T18:12:49.184Z,100822.34
2023-05-06T18:15:19.730Z,100822.69
2023-05-06T18:17:48.714Z,100826.53
2023-05-06T18:20:17.890Z,100822.47
2023-05-06T18:22:46.539Z,100829.81
2023-05-06T18:25:15.548Z,100824.75
2023-05-06T18:27:44.756Z,100829.81
2023-05-06T18:30:15.987Z,100833.88
2023-05-06T18:32:47.688Z,100837.00
2023-05-06T18:35:18.178Z,100838.34
2023-05-06T18:37:46.774Z,100846.34
2023-05-06T18:40:16.276Z,100850.81
2023-05-06T18:42:45.159Z,100844.19
2023-05-06T18:45:14.290Z,100842.03
2023-05-06T18:47:43.332Z,100834.22
2023-05-06T18:50:13.961Z,100840.59
2023-05-06T18:52:42.750Z,100840.34
2023-05-06T18:55:13.160Z,100836.28
2023-05-06T18:57:42.765Z,100837.81
2023-05-06T19:00:13.720Z,100840.38
2023-05-06T19:02:42.730Z,100836.38
2023-05-06T19:05:13.653Z,100840.59
2023-05-06T19:07:42.988Z,100832.91
2023-05-06T19:10:13.928Z,100832.53
2023-05-06T19:12:43.117Z,100837.84
2023-05-06T19:15:14.139Z,100839.97
2023-05-06T19:17:43.231Z,100841.81
2023-05-06T19:20:14.530Z,100842.28
2023-05-06T19:22:43.413Z,100841.31
2023-05-06T19:25:13.131Z,100838.09
2023-05-06T19:27:42.105Z,100836.63
2023-05-06T19:30:11.991Z,100827.88
2023-05-06T19:32:41.098Z,100825.38
2023-05-06T19:35:11.266Z,100822.50
2023-05-06T19:37:41.379Z,100827.25
2023-05-06T19:40:11.117Z,100823.31
2023-05-06T19:42:40.033Z,100825.81
2023-05-06T19:45:09.511Z,100823.41
2023-05-06T19:47:38.929Z,100817.44
2023-05-06T19:50:09.172Z,100818.13
2023-05-06T19:52:37.789Z,100820.19
2023-05-06T19:55:10.097Z,100822.00
2023-05-06T19:57:39.200Z,100818.06
2023-05-06T20:00:12.834Z,100825.97
2023-05-06T20:02:43.298Z,100826.09
2023-05-06T20:05:12.298Z,100824.53
2023-05-06T20:07:41.368Z,100837.63
2023-05-06T20:10:13.738Z,100837.47
2023-05-06T20:12:42.814Z,100838.44
2023-05-06T20:15:12.254Z,100839.28
2023-05-06T20:17:41.601Z,100837.72
2023-05-06T20:20:11.597Z,100843.34
2023-05-06T20:22:41.231Z,100838.81
2023-05-06T20:25:13.082Z,100841.91
2023-05-06T20:27:42.657Z,100836.75
2023-05-06T20:30:11.870Z,100839.06
2023-05-06T20:32:41.382Z,100843.59
2023-05-06T20:35:11.050Z,100846.25
2023-05-06T20:37:41.266Z,100841.81
2023-05-06T20:40:13.132Z,100840.59
2023-05-06T20:42:42.066Z,100842.28
2023-05-06T20:45:11.724Z,100831.38
2023-05-06T20:47:41.141Z,100835.31
2023-05-06T20:50:16.945Z,100832.34
2023-05-06T20:52:46.505Z,100835.09
2023-05-06T20:55:16.826Z,100830.03
2023-05-06T20:57:45.670Z,100831.72
2023-05-06T21:00:14.956Z,100827.97
2023-05-06T21:02:44.121Z,100834.25
2023-05-06T21:05:13.359Z,100828.50
2023-05-06T21:07:42.345Z,100829.94
2023-05-06T21:10:12.091Z,100839.53
2023-05-06T21:12:48.317Z,100837.00
2023-05-06T21:15:17.423Z,100834.63
2023-05-06T21:17:46.466Z,100842.28
2023-05-06T21:20:15.505Z,100840.84
2023-05-06T21:22:44.007Z,100835.81
2023-05-06T21:25:13.762Z,100834.38
2023-05-06T21:27:44.070Z,100851.03
2023-05-06T21:30:13.696Z,100837.50
2023-05-06T21:32:43.978Z,100848.25
2023-05-06T21:35:13.089Z,100843.09
2023-05-06T21:37:41.778Z,100844.41
2023-05-06T21:40:12.299Z,100849.72
2023-05-06T21:42:41.621Z,100852.59
2023-05-06T21:45:13.011Z,100845.16
2023-05-06T21:47:42.891Z,100839.41
2023-05-06T21:50:12.842Z,100843.25
2023-05-06T21:52:41.477Z,100842.63
2023-05-06T21:55:11.426Z,100839.25
2023-05-06T21:57:40.751Z,100835.44
2023-05-06T22:00:13.610Z,100842.88
2023-05-06T22:02:44.234Z,100836.75
2023-05-06T22:05:15.709Z,100839.16
2023-05-06T22:07:44.412Z,100830.53
2023-05-06T22:10:13.661Z,100830.16
2023-05-06T22:12:43.069Z,100831.69
2023-05-06T22:15:14.794Z,100835.91
2023-05-06T22:17:43.936Z,100832.69
2023-05-06T22:20:15.187Z,100841.66
2023-05-06T22:22:44.510Z,100834.22
2023-05-06T22:25:13.652Z,100844.19
2023-05-06T22:27:42.806Z,100835.19
2023-05-06T22:30:15.943Z,100845.63
2023-05-06T22:32:44.979Z,100852.59
2023-05-06T22:35:13.990Z,100842.97
2023-05-06T22:37:42.566Z,100838.91
2023-05-06T22:40:12.754Z,100845.50
2023-05-06T22:42:41.688Z,100849.44
2023-05-06T22:45:13.518Z,100851.50
2023-05-06T22:47:42.403Z,100839.16
2023-05-06T22:50:12.282Z,100844.06
2023-05-06T22:52:41.212Z,100845.13
2023-05-06T22:55:11.027Z,100848.94
2023-05-06T22:57:40.212Z,100840.81
2023-05-06T23:00:12.598Z,100840.06
2023-05-06T23:02:43.345Z,100839.97
2023-05-06T23:05:13.015Z,100837.22
2023-05-06T23:07:41.732Z,100837.53
2023-05-06T23:10:11.358Z,100834.44
2023-05-06T23:12:41.278Z,100841.53
2023-05-06T23:15:11.693Z,100840.47
2023-05-06T23:17:42.708Z,100839.03
2023-05-06T23:20:12.987Z,100854.84
2023-05-06T23:22:41.747Z,100852.94
2023-05-06T23:25:12.073Z,100854.38
2023-05-06T23:27:41.563Z,100848.75
2023-05-06T23:30:12.983Z,100854.25
2023-05-06T23:32:43.370Z,100862.13
2023-05-06T23:35:12.593Z,100859.75
2023-05-06T23:37:41.323Z,100858.06
2023-05-06T23:40:12.672Z,100863.81
2023-05-06T23:42:41.718Z,100858.94
2023-05-06T23:45:11.780Z,100861.56
2023-05-06T23:47:40.667Z,100868.38
2023-05-06T23:50:11.958Z,100865.03
2023-05-06T23:52:40.722Z,100868.63
2023-05-06T23:55:10.290Z,100864.19
2023-05-06T23:57:39.602Z,100864.63
